Hauptseite
METAR-TAF:

METAR-TAF

Flughäfen :

Flughafen Lübeck

Lübeck, Deutschland

Breite: 53-49N, Länge: 010-42E, Höhe: 14 m

Beobachtung

Neuester Wetterbericht von vor 31 Stunden und 40 Minuten, um 15:50 UTC
Wind 7 kt aus Südwest, variierte zwischen Süd/Südwest und West
Temperatur 20°C
Luftfeuchtigkeit 73%
Luftdruck 1017 hPa
Sichtweite 10 km oder mehr
Aufgelockert bewölkt in der Höhe von 2100 ft
Durchbrochene Bewölkung in der Höhe von 6800 ft

METAR: EDHL 171550Z 23007KT 200V280 9999 SCT021 BKN068 20/15 Q1017

Zeit: 01:30 (23:30 UTC)

Prognose

Neuester Wetterbericht von vor 30 Stunden und 30 Minuten, um 17:00 UTC
Gültige Prognose vom 20 um 18 UTC bis 20 um 21 UTC
Wind 4 kt aus West/Südwest
Sichtweite 10 km oder mehr
Aufgelockert bewölkt in der Höhe von 3500 ft

TAF: EDHL 201700Z 2018/2021 25004KT 9999 SCT035

Wetterbeobachtungen und Prognosen von mehr als 4000 Flughäfen (METAR und TAF Bericht).

Die verfügbaren Stationen werden durch gelbe und rote Markierungen auf der Karte dargestellt.

Führen Sie die Maus auf sie, um den Namen der Station zu sehen.

Darauf klicken, um die Beobachtung von Wetterbeobachtungen und Prognosen zu sehen.

Um die Karte zu ändern : klicken Sie auf den grünen Tasten mit einem schwarzen Kreuz Zum Vergrößern, auf den grünen Button mit einem Gedankenstrich zu verkleinern, oder auf die grünen Pfeile für benachbarte Karten.


METAR-TAF: